sensor_id;sensor_type;location;lat;lon;timestamp;temperature;humidity
25550;DHT22;13444;50.562;7.262;2022-11-21T00:00:57;7.80;99.90
25550;DHT22;13444;50.562;7.262;2022-11-21T00:03:23;7.80;99.90
25550;DHT22;13444;50.562;7.262;2022-11-21T00:05:49;7.80;99.90
25550;DHT22;13444;50.562;7.262;2022-11-21T00:08:17;7.80;99.90
25550;DHT22;13444;50.562;7.262;2022-11-21T00:10:43;7.80;99.90
25550;DHT22;13444;50.562;7.262;2022-11-21T00:13:14;7.90;99.90
25550;DHT22;13444;50.562;7.262;2022-11-21T00:15:40;7.90;99.90
25550;DHT22;13444;50.562;7.262;2022-11-21T00:18:05;7.90;99.90
25550;DHT22;13444;50.562;7.262;2022-11-21T00:20:31;7.90;99.90
25550;DHT22;13444;50.562;7.262;2022-11-21T00:22:57;7.90;99.90
25550;DHT22;13444;50.562;7.262;2022-11-21T00:25:22;8.00;99.90
25550;DHT22;13444;50.562;7.262;2022-11-21T00:27:48;8.00;99.90
25550;DHT22;13444;50.562;7.262;2022-11-21T00:30:14;8.00;99.90
25550;DHT22;13444;50.562;7.262;2022-11-21T00:32:40;7.90;99.90
25550;DHT22;13444;50.562;7.262;2022-11-21T00:35:06;8.00;99.90
25550;DHT22;13444;50.562;7.262;2022-11-21T00:37:32;7.90;99.90
25550;DHT22;13444;50.562;7.262;2022-11-21T00:39:58;8.00;99.90
25550;DHT22;13444;50.562;7.262;2022-11-21T00:42:23;8.00;99.90
25550;DHT22;13444;50.562;7.262;2022-11-21T00:44:49;7.90;99.90
25550;DHT22;13444;50.562;7.262;2022-11-21T00:47:14;8.00;99.90
25550;DHT22;13444;50.562;7.262;2022-11-21T00:49:40;8.00;99.90
25550;DHT22;13444;50.562;7.262;2022-11-21T00:52:05;8.00;99.90
25550;DHT22;13444;50.562;7.262;2022-11-21T00:54:31;8.00;99.90
25550;DHT22;13444;50.562;7.262;2022-11-21T00:56:56;8.00;99.90
25550;DHT22;13444;50.562;7.262;2022-11-21T00:59:22;7.90;99.90
25550;DHT22;13444;50.562;7.262;2022-11-21T01:01:47;7.90;99.90
25550;DHT22;13444;50.562;7.262;2022-11-21T01:04:13;7.80;99.90
25550;DHT22;13444;50.562;7.262;2022-11-21T01:06:38;7.80;99.90
25550;DHT22;13444;50.562;7.262;2022-11-21T01:09:04;7.80;99.90
25550;DHT22;13444;50.562;7.262;2022-11-21T01:11:30;7.90;99.90
25550;DHT22;13444;50.562;7.262;2022-11-21T01:13:56;7.90;99.90
25550;DHT22;13444;50.562;7.262;2022-11-21T01:16:24;7.90;99.90
25550;DHT22;13444;50.562;7.262;2022-11-21T01:18:49;7.80;99.90
25550;DHT22;13444;50.562;7.262;2022-11-21T01:21:18;7.80;99.90
25550;DHT22;13444;50.562;7.262;2022-11-21T01:23:44;7.80;99.90
25550;DHT22;13444;50.562;7.262;2022-11-21T01:26:13;7.80;99.90
25550;DHT22;13444;50.562;7.262;2022-11-21T01:28:38;7.70;99.90
25550;DHT22;13444;50.562;7.262;2022-11-21T01:31:10;7.70;99.90
25550;DHT22;13444;50.562;7.262;2022-11-21T01:33:36;7.70;99.90
25550;DHT22;13444;50.562;7.262;2022-11-21T01:36:29;7.60;99.90
25550;DHT22;13444;50.562;7.262;2022-11-21T01:38:57;7.60;99.90
25550;DHT22;13444;50.562;7.262;2022-11-21T01:43:50;7.50;99.90
25550;DHT22;13444;50.562;7.262;2022-11-21T01:46:18;7.50;99.90
25550;DHT22;13444;50.562;7.262;2022-11-21T01:49:08;7.50;99.90
25550;DHT22;13444;50.562;7.262;2022-11-21T01:54:21;7.50;99.90
25550;DHT22;13444;50.562;7.262;2022-11-21T01:57:05;7.50;99.90
25550;DHT22;13444;50.562;7.262;2022-11-21T01:59:44;7.40;99.90
25550;DHT22;13444;50.562;7.262;2022-11-21T02:02:12;7.50;99.90
25550;DHT22;13444;50.562;7.262;2022-11-21T02:04:41;7.50;99.90
25550;DHT22;13444;50.562;7.262;2022-11-21T02:07:08;7.50;99.90
25550;DHT22;13444;50.562;7.262;2022-11-21T02:09:36;7.50;99.90
25550;DHT22;13444;50.562;7.262;2022-11-21T02:12:12;7.50;99.90
25550;DHT22;13444;50.562;7.262;2022-11-21T02:14:41;7.50;99.90
25550;DHT22;13444;50.562;7.262;2022-11-21T02:17:09;7.50;99.90
25550;DHT22;13444;50.562;7.262;2022-11-21T02:22:45;7.40;99.90
25550;DHT22;13444;50.562;7.262;2022-11-21T02:25:25;7.40;99.90
25550;DHT22;13444;50.562;7.262;2022-11-21T02:27:55;7.40;99.90
25550;DHT22;13444;50.562;7.262;2022-11-21T02:30:22;7.40;99.90
25550;DHT22;13444;50.562;7.262;2022-11-21T02:32:48;7.40;99.90
25550;DHT22;13444;50.562;7.262;2022-11-21T02:35:15;7.30;99.90
25550;DHT22;13444;50.562;7.262;2022-11-21T02:37:42;7.30;99.90
25550;DHT22;13444;50.562;7.262;2022-11-21T02:40:13;7.20;99.90
25550;DHT22;13444;50.562;7.262;2022-11-21T02:45:38;7.30;99.90
25550;DHT22;13444;50.562;7.262;2022-11-21T02:48:04;7.20;99.90
25550;DHT22;13444;50.562;7.262;2022-11-21T02:50:41;7.10;99.90
25550;DHT22;13444;50.562;7.262;2022-11-21T02:53:10;7.10;99.90
25550;DHT22;13444;50.562;7.262;2022-11-21T02:55:36;7.10;99.90
25550;DHT22;13444;50.562;7.262;2022-11-21T02:58:03;7.10;99.90
25550;DHT22;13444;50.562;7.262;2022-11-21T03:00:29;7.10;99.90
25550;DHT22;13444;50.562;7.262;2022-11-21T03:02:55;7.00;99.90
25550;DHT22;13444;50.562;7.262;2022-11-21T03:05:21;7.00;99.90
25550;DHT22;13444;50.562;7.262;2022-11-21T03:07:47;7.00;99.90
25550;DHT22;13444;50.562;7.262;2022-11-21T03:10:13;7.00;99.90
25550;DHT22;13444;50.562;7.262;2022-11-21T03:12:40;7.00;99.90
25550;DHT22;13444;50.562;7.262;2022-11-21T03:15:09;7.00;99.90
25550;DHT22;13444;50.562;7.262;2022-11-21T03:17:34;6.90;99.90
25550;DHT22;13444;50.562;7.262;2022-11-21T03:20:00;6.90;99.90
25550;DHT22;13444;50.562;7.262;2022-11-21T03:22:26;7.00;99.90
25550;DHT22;13444;50.562;7.262;2022-11-21T03:24:51;7.00;99.90
25550;DHT22;13444;50.562;7.262;2022-11-21T03:27:17;7.00;99.90
25550;DHT22;13444;50.562;7.262;2022-11-21T03:29:43;7.00;99.90
25550;DHT22;13444;50.562;7.262;2022-11-21T03:32:08;7.00;99.90
25550;DHT22;13444;50.562;7.262;2022-11-21T03:34:34;7.10;99.90
25550;DHT22;13444;50.562;7.262;2022-11-21T03:36:59;7.10;99.90
25550;DHT22;13444;50.562;7.262;2022-11-21T03:39:25;7.10;99.90
25550;DHT22;13444;50.562;7.262;2022-11-21T03:41:50;7.10;99.90
25550;DHT22;13444;50.562;7.262;2022-11-21T03:44:16;7.10;99.90
25550;DHT22;13444;50.562;7.262;2022-11-21T03:46:43;7.10;99.90
25550;DHT22;13444;50.562;7.262;2022-11-21T03:49:10;7.10;99.90
25550;DHT22;13444;50.562;7.262;2022-11-21T03:51:36;7.10;99.90
25550;DHT22;13444;50.562;7.262;2022-11-21T03:54:02;7.20;99.90
25550;DHT22;13444;50.562;7.262;2022-11-21T03:56:28;7.20;99.90
25550;DHT22;13444;50.562;7.262;2022-11-21T03:58:54;7.20;99.90
25550;DHT22;13444;50.562;7.262;2022-11-21T04:01:20;7.20;99.90
25550;DHT22;13444;50.562;7.262;2022-11-21T04:03:46;7.20;99.90
25550;DHT22;13444;50.562;7.262;2022-11-21T04:06:14;7.20;99.90
25550;DHT22;13444;50.562;7.262;2022-11-21T04:08:40;7.20;99.90
25550;DHT22;13444;50.562;7.262;2022-11-21T04:11:06;7.20;99.90
25550;DHT22;13444;50.562;7.262;2022-11-21T04:13:32;7.30;99.90
25550;DHT22;13444;50.562;7.262;2022-11-21T04:15:58;7.30;99.90
25550;DHT22;13444;50.562;7.262;2022-11-21T04:18:23;7.20;99.90
25550;DHT22;13444;50.562;7.262;2022-11-21T04:20:57;7.20;99.90
25550;DHT22;13444;50.562;7.262;2022-11-21T04:23:23;7.20;99.90
25550;DHT22;13444;50.562;7.262;2022-11-21T04:25:49;7.20;99.90
25550;DHT22;13444;50.562;7.262;2022-11-21T04:28:14;7.20;99.90
25550;DHT22;13444;50.562;7.262;2022-11-21T04:30:40;7.20;99.90
25550;DHT22;13444;50.562;7.262;2022-11-21T04:33:06;7.20;99.90
25550;DHT22;13444;50.562;7.262;2022-11-21T04:35:31;7.20;99.90
25550;DHT22;13444;50.562;7.262;2022-11-21T04:37:57;7.20;99.90
25550;DHT22;13444;50.562;7.262;2022-11-21T04:40:22;7.20;99.90
25550;DHT22;13444;50.562;7.262;2022-11-21T04:42:48;7.20;99.90
25550;DHT22;13444;50.562;7.262;2022-11-21T04:45:15;7.20;99.90
25550;DHT22;13444;50.562;7.262;2022-11-21T04:47:45;7.20;99.90
25550;DHT22;13444;50.562;7.262;2022-11-21T04:50:13;7.20;99.90
25550;DHT22;13444;50.562;7.262;2022-11-21T04:52:40;7.20;99.90
25550;DHT22;13444;50.562;7.262;2022-11-21T04:55:06;7.20;99.90
25550;DHT22;13444;50.562;7.262;2022-11-21T04:57:32;7.20;99.90
25550;DHT22;13444;50.562;7.262;2022-11-21T04:59:58;7.20;99.90
25550;DHT22;13444;50.562;7.262;2022-11-21T05:02:24;7.20;99.90
25550;DHT22;13444;50.562;7.262;2022-11-21T05:04:50;7.20;99.90
25550;DHT22;13444;50.562;7.262;2022-11-21T05:07:16;7.30;99.90
25550;DHT22;13444;50.562;7.262;2022-11-21T05:09:42;7.30;99.90
25550;DHT22;13444;50.562;7.262;2022-11-21T05:12:09;7.30;99.90
25550;DHT22;13444;50.562;7.262;2022-11-21T05:14:54;7.30;99.90
25550;DHT22;13444;50.562;7.262;2022-11-21T05:17:20;7.30;99.90
25550;DHT22;13444;50.562;7.262;2022-11-21T05:19:45;7.30;99.90
25550;DHT22;13444;50.562;7.262;2022-11-21T05:22:11;7.30;99.90
25550;DHT22;13444;50.562;7.262;2022-11-21T05:24:36;7.20;99.90
25550;DHT22;13444;50.562;7.262;2022-11-21T05:27:02;7.20;99.90
25550;DHT22;13444;50.562;7.262;2022-11-21T05:29:28;7.20;99.90
25550;DHT22;13444;50.562;7.262;2022-11-21T05:31:53;7.10;99.90
25550;DHT22;13444;50.562;7.262;2022-11-21T05:34:19;7.10;99.90
25550;DHT22;13444;50.562;7.262;2022-11-21T05:36:44;7.00;99.90
25550;DHT22;13444;50.562;7.262;2022-11-21T05:39:10;7.00;99.90
25550;DHT22;13444;50.562;7.262;2022-11-21T05:41:35;7.00;99.90
25550;DHT22;13444;50.562;7.262;2022-11-21T05:44:01;6.90;99.90
25550;DHT22;13444;50.562;7.262;2022-11-21T05:46:26;6.90;99.90
25550;DHT22;13444;50.562;7.262;2022-11-21T05:48:53;6.90;99.90
25550;DHT22;13444;50.562;7.262;2022-11-21T05:51:20;6.90;99.90
25550;DHT22;13444;50.562;7.262;2022-11-21T05:53:46;6.90;99.90
25550;DHT22;13444;50.562;7.262;2022-11-21T05:56:15;6.90;99.90
25550;DHT22;13444;50.562;7.262;2022-11-21T05:58:41;6.80;99.90
25550;DHT22;13444;50.562;7.262;2022-11-21T06:01:08;6.80;99.90
25550;DHT22;13444;50.562;7.262;2022-11-21T06:03:37;6.80;99.90
25550;DHT22;13444;50.562;7.262;2022-11-21T06:06:08;6.80;99.90
25550;DHT22;13444;50.562;7.262;2022-11-21T06:08:40;6.80;99.90
25550;DHT22;13444;50.562;7.262;2022-11-21T06:11:08;6.80;99.90
25550;DHT22;13444;50.562;7.262;2022-11-21T06:13:34;6.80;99.90
25550;DHT22;13444;50.562;7.262;2022-11-21T06:19:21;6.80;99.90
25550;DHT22;13444;50.562;7.262;2022-11-21T06:21:47;6.70;99.90
25550;DHT22;13444;50.562;7.262;2022-11-21T06:24:12;6.80;99.90
25550;DHT22;13444;50.562;7.262;2022-11-21T06:26:38;6.80;99.90
25550;DHT22;13444;50.562;7.262;2022-11-21T06:29:03;6.80;99.90
25550;DHT22;13444;50.562;7.262;2022-11-21T06:31:29;6.70;99.90
25550;DHT22;13444;50.562;7.262;2022-11-21T06:33:57;6.70;99.90
25550;DHT22;13444;50.562;7.262;2022-11-21T06:36:23;6.70;99.90
25550;DHT22;13444;50.562;7.262;2022-11-21T06:38:49;6.70;99.90
25550;DHT22;13444;50.562;7.262;2022-11-21T06:41:19;6.70;99.90
25550;DHT22;13444;50.562;7.262;2022-11-21T06:43:45;6.60;99.90
25550;DHT22;13444;50.562;7.262;2022-11-21T06:46:11;6.70;99.90
25550;DHT22;13444;50.562;7.262;2022-11-21T06:48:37;6.70;99.90
25550;DHT22;13444;50.562;7.262;2022-11-21T06:51:05;6.70;99.90
25550;DHT22;13444;50.562;7.262;2022-11-21T06:53:31;6.60;99.90
25550;DHT22;13444;50.562;7.262;2022-11-21T06:56:00;6.70;99.90
25550;DHT22;13444;50.562;7.262;2022-11-21T06:58:26;6.60;99.90
25550;DHT22;13444;50.562;7.262;2022-11-21T07:00:53;6.70;99.90
25550;DHT22;13444;50.562;7.262;2022-11-21T07:03:19;6.60;99.90
25550;DHT22;13444;50.562;7.262;2022-11-21T07:05:45;6.70;99.90
25550;DHT22;13444;50.562;7.262;2022-11-21T07:08:11;6.60;99.90
25550;DHT22;13444;50.562;7.262;2022-11-21T07:10:36;6.60;99.90
25550;DHT22;13444;50.562;7.262;2022-11-21T07:13:02;6.60;99.90
25550;DHT22;13444;50.562;7.262;2022-11-21T07:15:47;6.60;99.90
25550;DHT22;13444;50.562;7.262;2022-11-21T07:18:13;6.60;99.90
25550;DHT22;13444;50.562;7.262;2022-11-21T07:20:39;6.60;99.90
25550;DHT22;13444;50.562;7.262;2022-11-21T07:23:06;6.60;99.90
25550;DHT22;13444;50.562;7.262;2022-11-21T07:25:32;6.60;99.90
25550;DHT22;13444;50.562;7.262;2022-11-21T07:27:58;6.60;99.90
25550;DHT22;13444;50.562;7.262;2022-11-21T07:30:25;6.60;99.90
25550;DHT22;13444;50.562;7.262;2022-11-21T07:33:02;6.60;99.90
25550;DHT22;13444;50.562;7.262;2022-11-21T07:35:28;6.60;99.90
25550;DHT22;13444;50.562;7.262;2022-11-21T07:37:54;6.60;99.90
25550;DHT22;13444;50.562;7.262;2022-11-21T07:40:20;6.70;99.90
25550;DHT22;13444;50.562;7.262;2022-11-21T07:42:46;6.60;99.90
25550;DHT22;13444;50.562;7.262;2022-11-21T07:45:12;6.70;99.90
25550;DHT22;13444;50.562;7.262;2022-11-21T07:47:38;6.70;99.90
25550;DHT22;13444;50.562;7.262;2022-11-21T07:50:05;6.70;99.90
25550;DHT22;13444;50.562;7.262;2022-11-21T07:52:31;6.70;99.90
25550;DHT22;13444;50.562;7.262;2022-11-21T07:54:57;6.70;99.90
25550;DHT22;13444;50.562;7.262;2022-11-21T07:57:23;6.70;99.90
25550;DHT22;13444;50.562;7.262;2022-11-21T07:59:49;6.70;99.90
25550;DHT22;13444;50.562;7.262;2022-11-21T08:02:23;6.80;99.90
25550;DHT22;13444;50.562;7.262;2022-11-21T08:04:48;6.80;99.90
25550;DHT22;13444;50.562;7.262;2022-11-21T08:07:18;6.80;99.90
25550;DHT22;13444;50.562;7.262;2022-11-21T08:09:44;6.80;99.90
25550;DHT22;13444;50.562;7.262;2022-11-21T08:12:10;6.80;99.90
25550;DHT22;13444;50.562;7.262;2022-11-21T08:14:36;6.80;99.90
25550;DHT22;13444;50.562;7.262;2022-11-21T08:17:02;6.80;99.90
25550;DHT22;13444;50.562;7.262;2022-11-21T08:19:28;6.90;99.90
25550;DHT22;13444;50.562;7.262;2022-11-21T08:21:53;6.90;99.90
25550;DHT22;13444;50.562;7.262;2022-11-21T08:24:19;6.90;99.90
25550;DHT22;13444;50.562;7.262;2022-11-21T08:26:45;7.00;99.90
25550;DHT22;13444;50.562;7.262;2022-11-21T08:29:11;7.00;99.90
25550;DHT22;13444;50.562;7.262;2022-11-21T08:31:37;7.00;99.90
25550;DHT22;13444;50.562;7.262;2022-11-21T08:34:03;7.00;99.90
25550;DHT22;13444;50.562;7.262;2022-11-21T08:36:29;7.00;99.90
25550;DHT22;13444;50.562;7.262;2022-11-21T08:38:55;7.00;99.90
25550;DHT22;13444;50.562;7.262;2022-11-21T08:41:21;7.00;99.90
25550;DHT22;13444;50.562;7.262;2022-11-21T08:44:05;7.00;99.90
25550;DHT22;13444;50.562;7.262;2022-11-21T08:46:33;7.00;99.90
25550;DHT22;13444;50.562;7.262;2022-11-21T08:49:02;7.00;99.90
25550;DHT22;13444;50.562;7.262;2022-11-21T08:51:27;7.00;99.90
25550;DHT22;13444;50.562;7.262;2022-11-21T08:53:53;7.00;99.90
25550;DHT22;13444;50.562;7.262;2022-11-21T08:56:18;7.10;99.90
25550;DHT22;13444;50.562;7.262;2022-11-21T08:58:44;7.10;99.90
25550;DHT22;13444;50.562;7.262;2022-11-21T09:01:09;7.10;99.90
25550;DHT22;13444;50.562;7.262;2022-11-21T09:03:35;7.20;99.90
25550;DHT22;13444;50.562;7.262;2022-11-21T09:06:00;7.20;99.90
25550;DHT22;13444;50.562;7.262;2022-11-21T09:08:26;7.10;99.90
25550;DHT22;13444;50.562;7.262;2022-11-21T09:10:51;7.20;99.90
25550;DHT22;13444;50.562;7.262;2022-11-21T09:13:17;7.10;99.90
25550;DHT22;13444;50.562;7.262;2022-11-21T09:15:43;7.20;99.90
25550;DHT22;13444;50.562;7.262;2022-11-21T09:18:27;7.20;99.90
25550;DHT22;13444;50.562;7.262;2022-11-21T09:20:52;7.20;99.90
25550;DHT22;13444;50.562;7.262;2022-11-21T09:23:18;7.30;99.90
25550;DHT22;13444;50.562;7.262;2022-11-21T09:25:44;7.30;99.90
25550;DHT22;13444;50.562;7.262;2022-11-21T09:28:11;7.30;99.90
25550;DHT22;13444;50.562;7.262;2022-11-21T09:30:38;7.30;99.90
25550;DHT22;13444;50.562;7.262;2022-11-21T09:33:06;7.40;99.90
25550;DHT22;13444;50.562;7.262;2022-11-21T09:35:32;7.40;99.90
25550;DHT22;13444;50.562;7.262;2022-11-21T09:37:58;7.60;99.90
25550;DHT22;13444;50.562;7.262;2022-11-21T09:40:24;7.60;99.90
25550;DHT22;13444;50.562;7.262;2022-11-21T09:43:02;7.70;99.90
25550;DHT22;13444;50.562;7.262;2022-11-21T09:45:37;7.80;99.90
25550;DHT22;13444;50.562;7.262;2022-11-21T09:48:11;8.10;99.90
25550;DHT22;13444;50.562;7.262;2022-11-21T09:50:45;8.80;99.90
25550;DHT22;13444;50.562;7.262;2022-11-21T09:53:25;9.60;99.90
25550;DHT22;13444;50.562;7.262;2022-11-21T09:56:08;10.30;99.90
25550;DHT22;13444;50.562;7.262;2022-11-21T09:58:44;11.10;99.90
25550;DHT22;13444;50.562;7.262;2022-11-21T10:01:12;11.70;99.90
25550;DHT22;13444;50.562;7.262;2022-11-21T10:03:44;12.30;99.90
25550;DHT22;13444;50.562;7.262;2022-11-21T10:06:28;12.80;99.90
25550;DHT22;13444;50.562;7.262;2022-11-21T10:12:39;13.70;99.90
25550;DHT22;13444;50.562;7.262;2022-11-21T10:23:35;13.00;99.90
25550;DHT22;13444;50.562;7.262;2022-11-21T10:31:40;11.20;99.90
25550;DHT22;13444;50.562;7.262;2022-11-21T10:34:12;10.90;99.90
25550;DHT22;13444;50.562;7.262;2022-11-21T10:36:42;10.60;99.90
25550;DHT22;13444;50.562;7.262;2022-11-21T10:39:42;10.40;99.90
25550;DHT22;13444;50.562;7.262;2022-11-21T10:42:22;10.40;99.90
25550;DHT22;13444;50.562;7.262;2022-11-21T10:44:54;10.40;99.90
25550;DHT22;13444;50.562;7.262;2022-11-21T10:47:39;10.40;99.90
25550;DHT22;13444;50.562;7.262;2022-11-21T10:52:44;10.70;99.90
25550;DHT22;13444;50.562;7.262;2022-11-21T10:55:12;11.20;99.90
25550;DHT22;13444;50.562;7.262;2022-11-21T10:57:46;11.70;99.90
25550;DHT22;13444;50.562;7.262;2022-11-21T11:00:13;11.70;99.90
25550;DHT22;13444;50.562;7.262;2022-11-21T11:03:03;11.60;99.90
25550;DHT22;13444;50.562;7.262;2022-11-21T11:05:36;11.40;99.90
25550;DHT22;13444;50.562;7.262;2022-11-21T11:08:13;11.40;99.90
25550;DHT22;13444;50.562;7.262;2022-11-21T11:10:59;11.70;99.90
25550;DHT22;13444;50.562;7.262;2022-11-21T11:13:25;11.80;99.90
25550;DHT22;13444;50.562;7.262;2022-11-21T11:18:44;11.70;99.90
25550;DHT22;13444;50.562;7.262;2022-11-21T11:21:24;11.70;99.90
25550;DHT22;13444;50.562;7.262;2022-11-21T11:23:51;11.90;99.90
25550;DHT22;13444;50.562;7.262;2022-11-21T11:26:28;12.10;99.90
25550;DHT22;13444;50.562;7.262;2022-11-21T11:29:24;12.10;99.90
25550;DHT22;13444;50.562;7.262;2022-11-21T11:32:17;12.20;99.90
25550;DHT22;13444;50.562;7.262;2022-11-21T11:37:39;12.40;99.90
25550;DHT22;13444;50.562;7.262;2022-11-21T11:42:57;12.10;99.90
25550;DHT22;13444;50.562;7.262;2022-11-21T11:46:02;11.90;99.90
25550;DHT22;13444;50.562;7.262;2022-11-21T11:48:58;11.90;99.90
25550;DHT22;13444;50.562;7.262;2022-11-21T11:51:35;11.90;99.90
25550;DHT22;13444;50.562;7.262;2022-11-21T11:54:13;11.80;99.90
25550;DHT22;13444;50.562;7.262;2022-11-21T11:56:41;11.50;99.90
25550;DHT22;13444;50.562;7.262;2022-11-21T11:59:31;11.10;99.90
25550;DHT22;13444;50.562;7.262;2022-11-21T12:02:06;11.00;99.90
25550;DHT22;13444;50.562;7.262;2022-11-21T12:04:56;10.90;99.90
25550;DHT22;13444;50.562;7.262;2022-11-21T12:07:30;10.90;99.90
25550;DHT22;13444;50.562;7.262;2022-11-21T12:13:13;10.90;99.90
25550;DHT22;13444;50.562;7.262;2022-11-21T12:15:45;11.00;99.90
25550;DHT22;13444;50.562;7.262;2022-11-21T12:23:08;10.90;99.90
25550;DHT22;13444;50.562;7.262;2022-11-21T12:25:42;11.00;99.90
25550;DHT22;13444;50.562;7.262;2022-11-21T12:28:34;11.00;99.90
25550;DHT22;13444;50.562;7.262;2022-11-21T12:31:25;10.90;99.90
25550;DHT22;13444;50.562;7.262;2022-11-21T12:34:13;11.00;99.90
25550;DHT22;13444;50.562;7.262;2022-11-21T12:40:11;10.90;99.90
25550;DHT22;13444;50.562;7.262;2022-11-21T12:43:12;10.70;99.90
25550;DHT22;13444;50.562;7.262;2022-11-21T12:45:51;10.70;99.90
25550;DHT22;13444;50.562;7.262;2022-11-21T12:51:35;10.70;99.90
25550;DHT22;13444;50.562;7.262;2022-11-21T12:54:49;10.60;99.90
25550;DHT22;13444;50.562;7.262;2022-11-21T12:57:20;10.60;99.90
25550;DHT22;13444;50.562;7.262;2022-11-21T13:00:07;10.50;99.90
25550;DHT22;13444;50.562;7.262;2022-11-21T13:05:25;10.60;99.90
25550;DHT22;13444;50.562;7.262;2022-11-21T13:07:58;10.40;99.90
25550;DHT22;13444;50.562;7.262;2022-11-21T13:10:26;10.30;99.90
25550;DHT22;13444;50.562;7.262;2022-11-21T13:13:24;10.20;99.90
25550;DHT22;13444;50.562;7.262;2022-11-21T13:16:17;10.00;99.90
25550;DHT22;13444;50.562;7.262;2022-11-21T13:18:44;9.90;99.90
25550;DHT22;13444;50.562;7.262;2022-11-21T13:21:39;9.80;99.90
25550;DHT22;13444;50.562;7.262;2022-11-21T13:24:06;9.80;99.90
25550;DHT22;13444;50.562;7.262;2022-11-21T13:29:09;9.80;99.90
25550;DHT22;13444;50.562;7.262;2022-11-21T13:31:36;9.90;99.90
25550;DHT22;13444;50.562;7.262;2022-11-21T13:34:03;9.90;99.90
25550;DHT22;13444;50.562;7.262;2022-11-21T13:50:08;9.90;99.90
25550;DHT22;13444;50.562;7.262;2022-11-21T13:55:33;9.90;99.90
25550;DHT22;13444;50.562;7.262;2022-11-21T14:01:24;9.90;99.90
25550;DHT22;13444;50.562;7.262;2022-11-21T14:06:38;9.70;99.90
25550;DHT22;13444;50.562;7.262;2022-11-21T14:09:22;9.70;99.90
25550;DHT22;13444;50.562;7.262;2022-11-21T14:11:59;9.60;99.90
25550;DHT22;13444;50.562;7.262;2022-11-21T14:17:19;9.70;99.90
25550;DHT22;13444;50.562;7.262;2022-11-21T14:19:50;9.70;99.90
25550;DHT22;13444;50.562;7.262;2022-11-21T14:22:30;9.70;99.90
25550;DHT22;13444;50.562;7.262;2022-11-21T14:25:00;9.70;99.90
25550;DHT22;13444;50.562;7.262;2022-11-21T14:27:31;9.70;99.90
25550;DHT22;13444;50.562;7.262;2022-11-21T14:30:00;9.70;99.90
25550;DHT22;13444;50.562;7.262;2022-11-21T14:32:30;9.60;99.90
25550;DHT22;13444;50.562;7.262;2022-11-21T14:35:18;9.50;99.90
25550;DHT22;13444;50.562;7.262;2022-11-21T14:37:44;9.40;99.90
25550;DHT22;13444;50.562;7.262;2022-11-21T14:40:20;9.30;99.90
25550;DHT22;13444;50.562;7.262;2022-11-21T14:42:46;9.30;99.90
25550;DHT22;13444;50.562;7.262;2022-11-21T14:45:18;9.20;99.90
25550;DHT22;13444;50.562;7.262;2022-11-21T14:47:48;9.20;99.90
25550;DHT22;13444;50.562;7.262;2022-11-21T14:50:25;9.10;99.90
25550;DHT22;13444;50.562;7.262;2022-11-21T14:52:51;9.10;99.90
25550;DHT22;13444;50.562;7.262;2022-11-21T14:55:27;9.10;99.90
25550;DHT22;13444;50.562;7.262;2022-11-21T14:57:53;9.10;99.90
25550;DHT22;13444;50.562;7.262;2022-11-21T15:00:23;9.00;99.90
25550;DHT22;13444;50.562;7.262;2022-11-21T15:02:53;9.00;99.90
25550;DHT22;13444;50.562;7.262;2022-11-21T15:05:21;9.00;99.90
25550;DHT22;13444;50.562;7.262;2022-11-21T15:07:48;8.90;99.90
25550;DHT22;13444;50.562;7.262;2022-11-21T15:10:18;8.90;99.90
25550;DHT22;13444;50.562;7.262;2022-11-21T15:15:25;8.70;99.90
25550;DHT22;13444;50.562;7.262;2022-11-21T15:18:00;8.70;99.90
25550;DHT22;13444;50.562;7.262;2022-11-21T15:20:27;8.70;99.90
25550;DHT22;13444;50.562;7.262;2022-11-21T15:22:58;8.60;99.90
25550;DHT22;13444;50.562;7.262;2022-11-21T15:25:26;8.60;99.90
25550;DHT22;13444;50.562;7.262;2022-11-21T15:33:14;8.50;99.90
25550;DHT22;13444;50.562;7.262;2022-11-21T15:35:51;8.50;99.90
25550;DHT22;13444;50.562;7.262;2022-11-21T15:38:48;8.40;99.90
25550;DHT22;13444;50.562;7.262;2022-11-21T15:46:26;8.30;99.90
25550;DHT22;13444;50.562;7.262;2022-11-21T15:48:53;8.30;99.90
25550;DHT22;13444;50.562;7.262;2022-11-21T15:51:24;8.30;99.90
25550;DHT22;13444;50.562;7.262;2022-11-21T15:53:50;8.30;99.90
25550;DHT22;13444;50.562;7.262;2022-11-21T15:56:19;8.20;99.90
25550;DHT22;13444;50.562;7.262;2022-11-21T15:58:46;8.20;99.90
25550;DHT22;13444;50.562;7.262;2022-11-21T16:03:38;8.20;99.90
25550;DHT22;13444;50.562;7.262;2022-11-21T16:06:04;8.20;99.90
25550;DHT22;13444;50.562;7.262;2022-11-21T16:08:29;8.10;99.90
25550;DHT22;13444;50.562;7.262;2022-11-21T16:10:55;8.10;99.90
25550;DHT22;13444;50.562;7.262;2022-11-21T16:13:20;8.10;99.90
25550;DHT22;13444;50.562;7.262;2022-11-21T16:15:46;8.10;99.90
25550;DHT22;13444;50.562;7.262;2022-11-21T16:18:11;8.00;99.90
25550;DHT22;13444;50.562;7.262;2022-11-21T16:20:37;8.00;99.90
25550;DHT22;13444;50.562;7.262;2022-11-21T16:23:02;8.10;99.90
25550;DHT22;13444;50.562;7.262;2022-11-21T16:25:28;8.00;99.90
25550;DHT22;13444;50.562;7.262;2022-11-21T16:27:55;8.00;99.90
25550;DHT22;13444;50.562;7.262;2022-11-21T16:30:21;8.00;99.90
25550;DHT22;13444;50.562;7.262;2022-11-21T16:32:46;7.90;99.90
25550;DHT22;13444;50.562;7.262;2022-11-21T16:35:12;7.90;99.90
25550;DHT22;13444;50.562;7.262;2022-11-21T16:37:37;7.90;99.90
25550;DHT22;13444;50.562;7.262;2022-11-21T16:40:03;7.90;99.90
25550;DHT22;13444;50.562;7.262;2022-11-21T16:42:29;7.90;99.90
25550;DHT22;13444;50.562;7.262;2022-11-21T16:44:54;7.90;99.90
25550;DHT22;13444;50.562;7.262;2022-11-21T16:47:20;7.90;99.90
25550;DHT22;13444;50.562;7.262;2022-11-21T16:49:46;7.90;99.90
25550;DHT22;13444;50.562;7.262;2022-11-21T16:52:12;7.80;99.90
25550;DHT22;13444;50.562;7.262;2022-11-21T16:54:39;7.80;99.90
25550;DHT22;13444;50.562;7.262;2022-11-21T16:57:04;7.80;99.90
25550;DHT22;13444;50.562;7.262;2022-11-21T16:59:30;7.80;99.90
25550;DHT22;13444;50.562;7.262;2022-11-21T17:01:56;7.80;99.90
25550;DHT22;13444;50.562;7.262;2022-11-21T17:04:22;7.80;99.90
25550;DHT22;13444;50.562;7.262;2022-11-21T17:06:48;7.80;99.90
25550;DHT22;13444;50.562;7.262;2022-11-21T17:09:14;7.80;99.90
25550;DHT22;13444;50.562;7.262;2022-11-21T17:11:40;7.80;99.90
25550;DHT22;13444;50.562;7.262;2022-11-21T17:14:06;7.80;99.90
25550;DHT22;13444;50.562;7.262;2022-11-21T17:16:33;7.90;99.90
25550;DHT22;13444;50.562;7.262;2022-11-21T17:19:01;8.00;99.90
25550;DHT22;13444;50.562;7.262;2022-11-21T17:21:27;8.00;99.90
25550;DHT22;13444;50.562;7.262;2022-11-21T17:23:53;8.00;99.90
25550;DHT22;13444;50.562;7.262;2022-11-21T17:26:21;8.00;99.90
25550;DHT22;13444;50.562;7.262;2022-11-21T17:28:57;8.00;99.90
25550;DHT22;13444;50.562;7.262;2022-11-21T17:31:23;8.00;99.90
25550;DHT22;13444;50.562;7.262;2022-11-21T17:33:49;8.00;99.90
25550;DHT22;13444;50.562;7.262;2022-11-21T17:36:21;7.90;99.90
25550;DHT22;13444;50.562;7.262;2022-11-21T17:38:47;7.90;99.90
25550;DHT22;13444;50.562;7.262;2022-11-21T17:41:15;7.90;99.90
25550;DHT22;13444;50.562;7.262;2022-11-21T17:43:41;7.90;99.90